Time;durP1;ratioP1;P1;durP2;ratioP2;P2;SDS_P1;SDS_P2;PMS_P1;PMS_P2;Temp;Humidity;BMP_temperature;BMP_pressure;BME280_temperature;BME280_humidity;BME280_pressure;Samples;Min_cycle;Max_cycle;Signal;HPM_P1;HPM_P2
2023/03/02 00:00:14;;;;;;;53.40;19.70;;;-1.30;99.90;;;;;;5053341;28;20179;-83
2023/03/02 00:02:41;;;;;;;48.03;17.70;;;-1.40;99.90;;;;;;5039462;28;20240;-82
2023/03/02 00:05:09;;;;;;;59.67;19.23;;;-1.40;99.90;;;;;;5024178;28;20180;-84
2023/03/02 00:07:36;;;;;;;24.50;14.83;;;-1.40;99.90;;;;;;5053907;28;20172;-85
2023/03/02 00:10:04;;;;;;;22.90;13.40;;;-1.40;99.90;;;;;;5035124;28;20218;-84
2023/03/02 00:12:32;;;;;;;22.80;13.10;;;-1.30;99.90;;;;;;5053331;28;20180;-83
2023/03/02 00:14:58;;;;;;;21.07;12.97;;;-1.30;99.90;;;;;;5052985;28;20208;-83
2023/03/02 00:17:26;;;;;;;25.63;13.87;;;-1.30;99.90;;;;;;5035753;28;20279;-83
2023/03/02 00:20:10;;;;;;;42.23;15.33;;;-1.20;99.90;;;;;;5035619;28;20229;-85
2023/03/02 00:22:42;;;;;;;34.00;16.00;;;-1.20;99.90;;;;;;5053137;28;20294;-83
2023/03/02 00:25:10;;;;;;;38.23;15.37;;;-1.20;99.90;;;;;;5052942;28;20171;-82
2023/03/02 00:27:35;;;;;;;37.57;18.07;;;-1.20;99.90;;;;;;5052812;28;20534;-83
2023/03/02 00:30:01;;;;;;;25.57;14.90;;;-1.20;99.90;;;;;;5018461;28;20185;-83
2023/03/02 00:32:27;;;;;;;39.67;14.83;;;-1.10;99.90;;;;;;5035186;28;20334;-84
2023/03/02 00:34:53;;;;;;;34.40;14.97;;;-1.10;99.90;;;;;;5034974;28;20269;-85
2023/03/02 00:37:18;;;;;;;35.80;13.03;;;-1.10;99.90;;;;;;5052724;28;20187;-83
2023/03/02 00:39:44;;;;;;;30.13;13.27;;;-1.10;99.90;;;;;;5018863;28;20206;-83
2023/03/02 00:42:10;;;;;;;22.23;12.77;;;-1.10;99.90;;;;;;5052646;28;20255;-83
2023/03/02 00:44:36;;;;;;;33.00;15.60;;;-1.10;99.90;;;;;;5034912;28;20317;-83
2023/03/02 00:47:02;;;;;;;31.13;14.77;;;-1.10;99.90;;;;;;5018117;28;20531;-83
2023/03/02 00:49:27;;;;;;;30.87;13.83;;;-1.10;99.90;;;;;;5034934;28;20182;-83
2023/03/02 00:51:53;;;;;;;26.73;15.00;;;-1.10;99.90;;;;;;5018088;28;20196;-84
2023/03/02 00:54:19;;;;;;;28.43;12.13;;;-1.10;99.90;;;;;;5018192;28;20236;-83
2023/03/02 00:56:45;;;;;;;38.40;15.23;;;-1.10;99.90;;;;;;5052929;28;20207;-83
2023/03/02 00:59:25;;;;;;;20.47;14.43;;;-1.10;99.90;;;;;;5034785;28;20289;-84
2023/03/02 01:01:57;;;;;;;35.57;14.50;;;-1.00;99.90;;;;;;5019902;28;20231;-84
2023/03/02 01:04:30;;;;;;;23.70;12.87;;;-1.00;99.90;;;;;;5052502;28;20651;-84
2023/03/02 01:06:57;;;;;;;28.13;15.77;;;-1.00;99.90;;;;;;5052724;28;20172;-84
2023/03/02 01:09:23;;;;;;;30.73;15.07;;;-1.10;99.90;;;;;;5035075;28;20182;-83
2023/03/02 01:11:49;;;;;;;29.13;14.23;;;-1.00;99.90;;;;;;5052192;28;20195;-83
2023/03/02 01:14:15;;;;;;;41.97;16.60;;;-1.00;99.90;;;;;;5034284;28;20270;-84
2023/03/02 01:16:40;;;;;;;27.10;10.53;;;-1.00;99.90;;;;;;5034668;28;20188;-84
2023/03/02 01:19:07;;;;;;;29.23;14.50;;;-1.00;99.90;;;;;;5034725;28;20182;-85
2023/03/02 01:21:33;;;;;;;34.70;14.93;;;-1.00;99.90;;;;;;5034946;28;20264;-84
2023/03/02 01:23:58;;;;;;;22.47;13.57;;;-1.00;99.90;;;;;;5037157;28;20662;-83
2023/03/02 01:26:24;;;;;;;39.03;16.83;;;-1.00;99.90;;;;;;5038149;28;20217;-82
2023/03/02 01:28:54;;;;;;;29.60;16.30;;;-1.00;99.90;;;;;;5038122;28;20189;-83
2023/03/02 01:31:20;;;;;;;43.60;15.93;;;-1.10;99.90;;;;;;5038608;28;20616;-83
2023/03/02 01:33:46;;;;;;;38.17;16.17;;;-0.90;99.90;;;;;;5021178;28;20244;-83
2023/03/02 01:36:12;;;;;;;27.37;15.13;;;-1.10;99.90;;;;;;5038048;28;20183;-83
2023/03/02 01:38:37;;;;;;;39.03;16.23;;;-1.10;99.90;;;;;;5038091;28;20182;-83
2023/03/02 01:41:03;;;;;;;46.77;17.77;;;-1.20;99.90;;;;;;5055407;28;20265;-84
2023/03/02 01:43:29;;;;;;;38.80;16.73;;;-1.30;99.90;;;;;;5055654;28;20195;-82
2023/03/02 01:45:56;;;;;;;37.60;15.90;;;0.00;99.90;;;;;;5055705;28;20223;-83
2023/03/02 01:48:55;;;;;;;29.33;16.20;;;-1.30;99.90;;;;;;5037616;28;20183;-83
2023/03/02 01:51:24;;;;;;;28.73;14.13;;;-1.30;99.90;;;;;;5037164;28;20174;-83
2023/03/02 01:53:54;;;;;;;26.90;13.23;;;-1.30;99.90;;;;;;5037594;28;20229;-83
2023/03/02 01:56:25;;;;;;;29.57;11.50;;;-1.20;99.90;;;;;;5055276;28;20199;-84
2023/03/02 01:58:55;;;;;;;22.57;12.07;;;-1.10;99.90;;;;;;5037811;28;20197;-83
2023/03/02 02:01:21;;;;;;;25.20;12.17;;;-0.50;99.90;;;;;;5055258;28;20235;-83
2023/03/02 02:03:49;;;;;;;30.10;10.97;;;-1.10;99.90;;;;;;5055475;28;20565;-83
2023/03/02 02:06:16;;;;;;;28.90;10.17;;;-1.20;99.90;;;;;;5055073;28;20233;-83
2023/03/02 02:08:44;;;;;;;16.97;9.13;;;-1.20;99.90;;;;;;5037446;28;20183;-84
2023/03/02 02:11:10;;;;;;;35.57;10.17;;;-1.20;99.90;;;;;;5054904;28;20168;-84
2023/03/02 02:13:36;;;;;;;16.97;10.50;;;-1.10;99.90;;;;;;5055180;28;20214;-83
2023/03/02 02:16:02;;;;;;;26.20;11.73;;;-1.00;99.90;;;;;;5037510;28;20184;-82
2023/03/02 02:18:28;;;;;;;17.47;9.80;;;-1.10;99.90;;;;;;5054946;28;20176;-84
2023/03/02 02:20:54;;;;;;;19.90;11.97;;;-1.00;99.90;;;;;;5055086;28;20538;-83
2023/03/02 02:23:50;;;;;;;24.97;10.83;;;-1.00;99.90;;;;;;5054663;28;20240;-83
2023/03/02 02:26:27;;;;;;;20.63;12.13;;;-1.00;99.90;;;;;;5054912;28;20179;-83
2023/03/02 02:29:01;;;;;;;22.90;11.53;;;-0.90;99.90;;;;;;5055150;28;20198;-82
2023/03/02 02:31:35;;;;;;;30.83;12.80;;;-0.90;99.90;;;;;;5036752;28;20183;-84
2023/03/02 02:34:22;;;;;;;20.30;10.23;;;-0.80;99.90;;;;;;5036438;28;20740;-83
2023/03/02 02:36:51;;;;;;;27.93;11.67;;;-0.70;99.90;;;;;;5036894;28;20516;-82
2023/03/02 02:39:24;;;;;;;21.40;11.97;;;-0.60;99.90;;;;;;5036706;28;20190;-83
2023/03/02 02:41:54;;;;;;;37.67;11.37;;;-0.60;99.90;;;;;;5036711;28;20168;-84
2023/03/02 02:44:19;;;;;;;27.90;12.80;;;-0.50;99.90;;;;;;5036541;28;20218;-84
2023/03/02 02:46:45;;;;;;;28.63;11.83;;;-0.50;99.90;;;;;;5020212;28;20208;-83
2023/03/02 02:49:35;;;;;;;28.57;11.77;;;-0.50;99.90;;;;;;5054479;28;20688;-84
2023/03/02 02:52:02;;;;;;;26.40;11.47;;;-0.50;99.90;;;;;;5036354;28;20207;-82
2023/03/02 02:54:29;;;;;;;28.47;12.80;;;-0.60;99.90;;;;;;5054179;28;20219;-85
2023/03/02 02:56:57;;;;;;;22.60;12.30;;;-0.60;99.90;;;;;;5054215;28;20206;-83
2023/03/02 02:59:31;;;;;;;27.20;10.23;;;-0.60;99.90;;;;;;5036265;28;20195;-84
2023/03/02 03:01:57;;;;;;;24.17;11.70;;;-0.50;99.90;;;;;;5054091;28;20225;-83
2023/03/02 03:04:29;;;;;;;47.37;12.93;;;-0.50;99.90;;;;;;5054005;28;20513;-83
2023/03/02 03:07:00;;;;;;;21.67;11.40;;;-0.50;99.90;;;;;;5036421;28;20527;-84
2023/03/02 03:09:27;;;;;;;25.70;10.80;;;-0.50;99.90;;;;;;5053721;28;20172;-83
2023/03/02 03:12:03;;;;;;;39.87;14.77;;;-0.40;99.90;;;;;;5053952;28;20222;-84
2023/03/02 03:14:40;;;;;;;26.03;10.33;;;-0.50;99.90;;;;;;5053726;28;20195;-84
2023/03/02 03:17:12;;;;;;;19.77;9.90;;;-0.40;99.90;;;;;;5054345;28;20171;-83
2023/03/02 03:19:40;;;;;;;30.60;11.70;;;-0.40;99.90;;;;;;5053768;28;20261;-83
2023/03/02 03:22:10;;;;;;;20.03;11.37;;;-0.30;99.90;;;;;;5053716;28;20174;-83
2023/03/02 03:24:36;;;;;;;13.77;9.13;;;0.40;99.90;;;;;;5053923;28;20177;-82
2023/03/02 03:27:04;;;;;;;29.03;12.33;;;-0.30;99.90;;;;;;5053815;28;20182;-83
2023/03/02 03:29:30;;;;;;;24.63;12.10;;;-0.30;99.90;;;;;;5053963;28;20172;-82
2023/03/02 03:31:56;;;;;;;19.33;9.13;;;-0.30;99.90;;;;;;5037350;28;20183;-82
2023/03/02 03:34:23;;;;;;;23.17;11.40;;;-0.40;99.90;;;;;;5060525;28;20200;-83
2023/03/02 03:36:49;;;;;;;32.50;10.37;;;-0.30;99.90;;;;;;5039229;28;20655;-83
2023/03/02 03:39:15;;;;;;;19.33;10.03;;;-0.30;99.90;;;;;;5053874;28;20188;-84
2023/03/02 03:41:41;;;;;;;25.90;11.03;;;-0.30;99.90;;;;;;5053272;28;20184;-84
2023/03/02 03:44:07;;;;;;;26.77;11.67;;;-0.30;99.90;;;;;;5035419;28;20651;-83
2023/03/02 03:46:33;;;;;;;21.60;11.13;;;-0.30;99.90;;;;;;5018359;28;20263;-83
2023/03/02 03:48:59;;;;;;;17.57;10.60;;;-0.30;99.90;;;;;;5053643;28;20183;-84
2023/03/02 03:51:25;;;;;;;26.80;11.20;;;-0.20;99.90;;;;;;5053063;28;20176;-83
2023/03/02 03:54:00;;;;;;;23.63;10.63;;;-0.20;99.90;;;;;;5053391;28;20204;-83
2023/03/02 03:56:33;;;;;;;19.17;11.73;;;-0.20;99.90;;;;;;5035471;28;20281;-82
2023/03/02 03:59:05;;;;;;;22.37;11.80;;;-0.20;99.90;;;;;;5053415;28;20174;-82
2023/03/02 04:01:43;;;;;;;22.43;9.60;;;-0.20;99.90;;;;;;5052901;28;20241;-82
2023/03/02 04:04:16;;;;;;;20.03;10.10;;;-0.20;99.90;;;;;;5053509;28;20667;-83
2023/03/02 04:06:42;;;;;;;13.60;7.53;;;-0.10;99.90;;;;;;5035956;28;20624;-81
2023/03/02 04:09:08;;;;;;;21.87;9.07;;;-0.10;99.90;;;;;;5053473;28;20175;-83
2023/03/02 04:11:39;;;;;;;22.83;11.27;;;-0.20;99.90;;;;;;5035295;28;20516;-83
2023/03/02 04:14:06;;;;;;;35.97;12.17;;;-0.10;99.90;;;;;;5035339;28;20241;-83
2023/03/02 04:16:32;;;;;;;15.33;9.50;;;-0.10;99.90;;;;;;5052936;28;20176;-83
2023/03/02 04:18:58;;;;;;;30.50;11.77;;;-0.10;99.90;;;;;;5018764;28;20202;-82
2023/03/02 04:21:24;;;;;;;14.10;9.47;;;0.00;99.90;;;;;;5053247;28;20205;-83
2023/03/02 04:23:49;;;;;;;26.20;10.27;;;-0.10;99.90;;;;;;5052978;28;20668;-82
2023/03/02 04:26:15;;;;;;;16.83;10.13;;;-0.10;99.90;;;;;;5052843;28;20173;-82
2023/03/02 04:28:41;;;;;;;28.80;11.37;;;-0.10;99.90;;;;;;5052813;28;20172;-83
2023/03/02 04:31:07;;;;;;;21.57;13.00;;;-0.10;99.90;;;;;;5035481;28;20176;-85
2023/03/02 04:33:33;;;;;;;18.57;12.27;;;0.10;99.90;;;;;;5034736;28;20608;-82
2023/03/02 04:35:58;;;;;;;21.13;10.97;;;-0.10;99.90;;;;;;5035165;28;20644;-82
2023/03/02 04:38:28;;;;;;;22.03;11.33;;;0.00;99.90;;;;;;5035153;28;20222;-84
2023/03/02 04:40:57;;;;;;;19.93;10.20;;;0.00;99.90;;;;;;5035829;28;20627;-83
2023/03/02 04:43:24;;;;;;;25.00;11.43;;;0.10;99.90;;;;;;5024598;28;20656;-83
2023/03/02 04:45:51;;;;;;;16.77;10.47;;;0.10;99.90;;;;;;5032780;28;20177;-83
2023/03/02 04:48:17;;;;;;;19.87;11.33;;;0.10;99.90;;;;;;5032950;28;20192;-83
2023/03/02 04:50:43;;;;;;;25.10;11.47;;;0.10;99.90;;;;;;5015145;28;20176;-83
2023/03/02 04:53:10;;;;;;;30.00;15.70;;;0.20;99.90;;;;;;5032681;28;20200;-84
2023/03/02 04:55:36;;;;;;;26.30;12.93;;;0.10;99.90;;;;;;5014893;28;20532;-83
2023/03/02 04:58:03;;;;;;;34.50;13.43;;;0.10;99.90;;;;;;5016213;28;20177;-84
2023/03/02 05:00:32;;;;;;;28.60;11.20;;;0.10;99.90;;;;;;5036468;28;20301;-83
2023/03/02 05:02:59;;;;;;;22.10;11.73;;;0.10;99.90;;;;;;5019527;28;20173;-84
2023/03/02 05:05:25;;;;;;;21.77;10.37;;;0.10;99.90;;;;;;5023983;28;20269;-84
2023/03/02 05:07:51;;;;;;;34.93;15.27;;;0.10;99.90;;;;;;4993635;28;20194;-83
2023/03/02 05:10:18;;;;;;;23.30;11.73;;;0.10;99.90;;;;;;5028983;28;20171;-84
2023/03/02 05:12:53;;;;;;;29.33;13.87;;;0.20;99.90;;;;;;5023452;28;20457;-83
2023/03/02 05:15:26;;;;;;;33.50;15.40;;;0.20;99.90;;;;;;5036481;28;20168;-84
2023/03/02 05:17:52;;;;;;;25.23;11.73;;;0.20;99.90;;;;;;5020883;28;20256;-83
2023/03/02 05:20:18;;;;;;;17.13;10.03;;;0.30;99.90;;;;;;5023899;28;20584;-84
2023/03/02 05:22:44;;;;;;;27.87;13.67;;;0.30;99.90;;;;;;5018328;28;20262;-84
2023/03/02 05:25:10;;;;;;;21.13;10.83;;;0.30;99.90;;;;;;5046679;28;20543;-83
2023/03/02 05:27:36;;;;;;;25.90;11.03;;;0.40;99.90;;;;;;5038517;28;20180;-84
2023/03/02 05:30:06;;;;;;;40.70;15.47;;;0.40;99.90;;;;;;5021037;28;20704;-84
2023/03/02 05:32:31;;;;;;;18.27;10.00;;;0.40;99.90;;;;;;5043579;28;20180;-83
2023/03/02 05:34:57;;;;;;;24.20;12.73;;;0.40;99.90;;;;;;5017734;28;20208;-83
2023/03/02 05:37:23;;;;;;;32.30;10.80;;;0.50;99.90;;;;;;5017445;28;20196;-83
2023/03/02 05:39:49;;;;;;;23.33;12.77;;;0.50;99.90;;;;;;5016068;28;20185;-85
2023/03/02 05:42:14;;;;;;;19.93;12.40;;;0.50;99.90;;;;;;5035008;28;20182;-83
2023/03/02 05:44:40;;;;;;;27.73;12.07;;;0.50;99.90;;;;;;5016329;28;20823;-84
2023/03/02 05:47:05;;;;;;;27.77;11.80;;;0.50;99.90;;;;;;5016306;28;20637;-83
2023/03/02 05:49:31;;;;;;;27.43;11.33;;;0.50;99.90;;;;;;5015961;28;20641;-83
2023/03/02 05:51:57;;;;;;;29.57;12.40;;;0.50;99.90;;;;;;5015653;28;20726;-83
2023/03/02 05:54:22;;;;;;;27.37;13.43;;;0.50;99.90;;;;;;5033679;28;20258;-83
2023/03/02 05:56:48;;;;;;;31.30;12.70;;;0.50;99.90;;;;;;4999535;28;20651;-85
2023/03/02 05:59:14;;;;;;;31.23;12.17;;;0.50;99.90;;;;;;5015898;28;20544;-84
2023/03/02 06:01:39;;;;;;;30.70;12.17;;;0.50;99.90;;;;;;5033281;28;20660;-83
2023/03/02 06:04:05;;;;;;;22.13;11.20;;;0.50;99.90;;;;;;5012957;28;20267;-84
2023/03/02 06:06:31;;;;;;;36.13;13.90;;;0.50;99.90;;;;;;5015830;28;20194;-84
2023/03/02 06:08:56;;;;;;;24.73;12.97;;;0.60;99.90;;;;;;5019441;28;20712;-83
2023/03/02 06:11:22;;;;;;;21.23;11.07;;;0.60;99.90;;;;;;5000964;28;20191;-84
2023/03/02 06:13:48;;;;;;;32.50;15.27;;;0.60;99.90;;;;;;5010500;28;20681;-84
2023/03/02 06:16:13;;;;;;;24.07;12.30;;;0.60;99.90;;;;;;5031938;28;20211;-83
2023/03/02 06:18:39;;;;;;;32.87;12.50;;;0.70;99.90;;;;;;4999204;28;20192;-82
2023/03/02 06:21:05;;;;;;;26.80;13.60;;;0.70;99.90;;;;;;5033487;28;20188;-82
2023/03/02 06:23:31;;;;;;;30.70;14.80;;;0.80;99.90;;;;;;5015160;28;20203;-83
2023/03/02 06:25:57;;;;;;;30.70;13.73;;;0.80;99.90;;;;;;5016660;28;20204;-83
2023/03/02 06:28:24;;;;;;;27.73;12.70;;;0.90;99.90;;;;;;5027029;28;20267;-83
2023/03/02 06:30:51;;;;;;;24.80;11.83;;;0.90;99.90;;;;;;5033023;28;20640;-83
2023/03/02 06:33:18;;;;;;;19.63;12.50;;;1.00;99.90;;;;;;4997521;28;20212;-84
2023/03/02 06:35:44;;;;;;;19.67;11.57;;;1.10;99.90;;;;;;5030268;28;20267;-86
2023/03/02 06:38:09;;;;;;;36.30;13.17;;;1.20;99.90;;;;;;5031152;28;20562;-81
2023/03/02 06:40:35;;;;;;;28.93;14.87;;;1.20;99.90;;;;;;5013859;28;20173;-82
2023/03/02 06:43:01;;;;;;;34.43;15.30;;;1.30;99.90;;;;;;5018262;28;20185;-82
2023/03/02 06:45:28;;;;;;;24.00;12.30;;;1.30;99.90;;;;;;5012235;28;20585;-82
2023/03/02 06:47:54;;;;;;;20.37;10.60;;;1.40;99.90;;;;;;5031571;28;20235;-81
2023/03/02 06:50:20;;;;;;;44.37;16.37;;;1.50;99.90;;;;;;5014124;28;20215;-82
2023/03/02 06:52:46;;;;;;;28.67;13.10;;;1.50;99.90;;;;;;5031972;28;20213;-82
2023/03/02 06:55:12;;;;;;;26.47;12.97;;;1.50;99.90;;;;;;4998521;28;20217;-83
2023/03/02 06:57:38;;;;;;;22.60;12.37;;;1.60;99.90;;;;;;5031802;28;20347;-83
2023/03/02 07:00:16;;;;;;;23.37;11.23;;;1.60;99.90;;;;;;5027645;28;20213;-82
2023/03/02 07:02:43;;;;;;;27.50;13.47;;;1.60;99.90;;;;;;5025354;28;20248;-81
2023/03/02 07:05:09;;;;;;;22.77;11.23;;;1.70;99.90;;;;;;5027004;28;20188;-81
2023/03/02 07:07:35;;;;;;;26.00;12.50;;;1.70;99.90;;;;;;5028979;28;20988;-81
2023/03/02 07:10:01;;;;;;;26.83;13.87;;;1.70;99.90;;;;;;5012734;28;20613;-81
2023/03/02 07:12:26;;;;;;;28.93;12.93;;;1.70;99.90;;;;;;5027513;28;20653;-80
2023/03/02 07:14:52;;;;;;;23.03;12.83;;;1.80;99.90;;;;;;5020038;28;20579;-80
2023/03/02 07:17:19;;;;;;;29.93;15.50;;;1.80;99.90;;;;;;5032056;28;20200;-81
2023/03/02 07:19:44;;;;;;;40.27;14.50;;;1.90;99.90;;;;;;5033927;28;20522;-80
2023/03/02 07:22:10;;;;;;;27.80;15.30;;;1.90;99.90;;;;;;5030047;28;20532;-81
2023/03/02 07:24:36;;;;;;;25.73;15.87;;;1.90;99.90;;;;;;5031393;28;20652;-81
2023/03/02 07:27:01;;;;;;;28.83;14.27;;;2.00;99.90;;;;;;5030251;28;20654;-82
2023/03/02 07:29:27;;;;;;;26.27;12.13;;;2.00;99.90;;;;;;5029993;28;20692;-83
2023/03/02 07:31:55;;;;;;;21.47;12.17;;;2.00;99.90;;;;;;5032297;28;20184;-81
2023/03/02 07:34:23;;;;;;;32.77;12.93;;;1.90;99.90;;;;;;5031366;28;20671;-82
2023/03/02 07:36:49;;;;;;;25.50;12.97;;;1.90;99.90;;;;;;5032518;28;20266;-82
2023/03/02 07:39:15;;;;;;;21.90;11.93;;;1.80;99.90;;;;;;5014522;28;20264;-82
2023/03/02 07:41:40;;;;;;;20.63;11.87;;;1.90;99.90;;;;;;5014364;28;20263;-82
2023/03/02 07:44:06;;;;;;;28.80;15.07;;;1.90;99.90;;;;;;5031841;28;20182;-81
2023/03/02 07:46:32;;;;;;;21.93;11.83;;;1.90;99.90;;;;;;5014313;28;20176;-81
2023/03/02 07:48:58;;;;;;;25.77;11.47;;;1.90;99.90;;;;;;5013965;28;20186;-81
2023/03/02 07:51:24;;;;;;;39.90;16.93;;;1.90;99.90;;;;;;5031777;28;20202;-81
2023/03/02 07:53:49;;;;;;;28.40;13.40;;;2.00;99.90;;;;;;5014295;28;20230;-81
2023/03/02 07:56:15;;;;;;;26.27;12.90;;;2.10;99.90;;;;;;5031673;28;20184;-81
2023/03/02 07:58:41;;;;;;;32.77;13.37;;;2.10;99.90;;;;;;4997710;28;20234;-81
2023/03/02 08:01:07;;;;;;;35.87;17.17;;;2.20;99.90;;;;;;5031431;28;20604;-80
2023/03/02 08:03:33;;;;;;;33.03;13.33;;;2.20;99.90;;;;;;5031541;28;20211;-81
2023/03/02 08:06:07;;;;;;;21.80;13.03;;;2.30;99.90;;;;;;5031486;28;20191;-80
2023/03/02 08:08:33;;;;;;;28.37;14.03;;;2.40;99.90;;;;;;5012209;28;20651;-82
2023/03/02 08:11:11;;;;;;;39.93;19.67;;;2.40;99.90;;;;;;5031660;28;20200;-80
2023/03/02 08:13:37;;;;;;;28.20;14.53;;;2.40;99.90;;;;;;5030098;28;20206;-81
2023/03/02 08:16:05;;;;;;;38.07;17.80;;;2.40;99.90;;;;;;5031253;28;20177;-82
2023/03/02 08:18:31;;;;;;;41.73;15.17;;;2.40;99.90;;;;;;5013936;28;20176;-80
2023/03/02 08:20:58;;;;;;;43.70;16.43;;;2.40;99.90;;;;;;5013747;28;20218;-80
2023/03/02 08:23:25;;;;;;;43.20;15.27;;;2.40;99.90;;;;;;5031216;28;20956;-81
2023/03/02 08:25:54;;;;;;;41.80;16.37;;;2.40;99.90;;;;;;5031477;28;20180;-81
2023/03/02 08:28:22;;;;;;;37.93;16.03;;;2.50;99.90;;;;;;5031184;28;20591;-81
2023/03/02 08:30:55;;;;;;;37.80;16.27;;;2.40;99.90;;;;;;5028690;28;20208;-83
2023/03/02 08:33:21;;;;;;;38.03;17.47;;;2.30;99.90;;;;;;5034835;28;20299;-82
2023/03/02 08:35:58;;;;;;;44.47;18.37;;;2.30;99.90;;;;;;5017734;28;20279;-82
2023/03/02 08:38:24;;;;;;;40.60;15.83;;;2.20;99.90;;;;;;5035468;28;20202;-81
2023/03/02 08:40:51;;;;;;;43.97;19.20;;;2.30;99.90;;;;;;5035369;28;20275;-81
2023/03/02 08:43:18;;;;;;;40.63;17.93;;;2.40;99.90;;;;;;5035030;28;20536;-81
2023/03/02 08:45:44;;;;;;;37.63;17.20;;;2.40;99.90;;;;;;5035871;28;20263;-82
2023/03/02 08:48:10;;;;;;;34.17;14.53;;;2.40;99.90;;;;;;5017312;28;20193;-82
2023/03/02 08:50:35;;;;;;;28.33;13.93;;;2.50;99.90;;;;;;5034770;28;20249;-81
2023/03/02 08:53:01;;;;;;;42.60;17.90;;;2.50;99.90;;;;;;5032241;28;20180;-81
2023/03/02 08:55:27;;;;;;;34.90;16.33;;;2.60;99.90;;;;;;5017372;28;20187;-81
2023/03/02 08:57:53;;;;;;;42.33;18.00;;;2.70;99.90;;;;;;5017213;28;20207;-81
2023/03/02 09:00:19;;;;;;;35.20;16.43;;;2.70;99.90;;;;;;5017463;28;20331;-81
2023/03/02 09:02:45;;;;;;;39.80;17.03;;;2.80;99.90;;;;;;5035473;28;20193;-81
2023/03/02 09:05:11;;;;;;;34.70;18.10;;;2.90;99.90;;;;;;5017116;28;20261;-81
2023/03/02 09:07:36;;;;;;;23.90;12.80;;;2.90;99.90;;;;;;5017090;28;20184;-82
2023/03/02 09:10:03;;;;;;;39.63;16.13;;;2.90;99.90;;;;;;5016785;28;20176;-81
2023/03/02 09:12:28;;;;;;;23.33;13.23;;;3.00;99.90;;;;;;5034901;28;20264;-83
2023/03/02 09:14:54;;;;;;;38.17;14.67;;;3.10;99.90;;;;;;5034930;28;20341;-82
2023/03/02 09:17:20;;;;;;;41.87;15.97;;;3.10;99.90;;;;;;5034639;28;20612;-82
2023/03/02 09:19:45;;;;;;;32.77;15.10;;;3.10;99.90;;;;;;5034720;28;20267;-81
2023/03/02 09:22:11;;;;;;;43.83;15.90;;;3.10;99.90;;;;;;5016573;28;20215;-81
2023/03/02 09:24:37;;;;;;;27.27;15.13;;;3.20;99.90;;;;;;5034446;28;20187;-82
2023/03/02 09:27:03;;;;;;;28.10;14.37;;;3.20;99.90;;;;;;5034056;28;20559;-82
2023/03/02 09:29:28;;;;;;;30.33;12.93;;;3.30;99.90;;;;;;5034251;28;20181;-82
2023/03/02 09:31:54;;;;;;;30.40;14.67;;;3.30;99.90;;;;;;5034143;28;20177;-82
2023/03/02 09:34:20;;;;;;;37.83;15.87;;;3.40;99.90;;;;;;5034555;28;20235;-82
2023/03/02 09:36:46;;;;;;;39.23;15.67;;;3.40;99.90;;;;;;5034840;28;20176;-82
2023/03/02 09:39:12;;;;;;;32.20;15.97;;;3.40;99.90;;;;;;5016454;28;20250;-82
2023/03/02 09:41:59;;;;;;;34.97;16.17;;;3.50;99.90;;;;;;5034536;28;20250;-82
2023/03/02 09:44:58;;;;;;;35.03;15.90;;;3.50;99.90;;;;;;5033844;28;20636;-82
2023/03/02 09:47:38;;;;;;;38.80;17.00;;;3.60;99.90;;;;;;5034846;28;20168;-83
2023/03/02 09:50:10;;;;;;;38.37;16.07;;;3.70;99.90;;;;;;5016520;28;20176;-83
2023/03/02 09:52:43;;;;;;;27.97;13.90;;;3.80;99.90;;;;;;5017002;28;20177;-82
2023/03/02 09:55:18;;;;;;;45.50;18.97;;;3.80;99.90;;;;;;5016682;28;20200;-82
2023/03/02 09:57:45;;;;;;;29.20;15.77;;;3.80;99.90;;;;;;5016810;28;20180;-82
2023/03/02 10:00:34;;;;;;;33.50;15.03;;;3.80;99.90;;;;;;5000461;28;20185;-83
2023/03/02 10:03:05;;;;;;;37.83;17.23;;;3.80;99.90;;;;;;5034714;28;20181;-83
2023/03/02 10:05:39;;;;;;;42.53;17.73;;;3.70;99.90;;;;;;5034712;28;20169;-83
2023/03/02 10:08:10;;;;;;;42.43;21.17;;;3.60;99.90;;;;;;5017087;28;20226;-83
2023/03/02 10:10:44;;;;;;;47.47;19.77;;;3.60;99.90;;;;;;5016668;28;20176;-83
2023/03/02 10:13:27;;;;;;;48.73;20.57;;;3.50;99.90;;;;;;5016144;28;20176;-80
2023/03/02 10:16:04;;;;;;;47.43;21.27;;;3.30;99.90;;;;;;5034293;28;20227;-82
2023/03/02 10:18:39;;;;;;;53.93;20.43;;;3.20;99.90;;;;;;5016444;28;20172;-81
2023/03/02 10:21:23;;;;;;;48.97;19.53;;;3.20;99.90;;;;;;5034394;28;20175;-83
2023/03/02 10:24:29;;;;;;;46.30;15.70;;;3.20;99.90;;;;;;5034263;28;20323;-83
2023/03/02 10:27:19;;;;;;;47.77;18.33;;;3.20;99.90;;;;;;4986005;28;20180;-83
2023/03/02 10:29:50;;;;;;;53.73;19.97;;;3.30;99.90;;;;;;5034005;28;20164;-82
2023/03/02 10:32:20;;;;;;;38.13;17.30;;;3.20;99.90;;;;;;5016154;28;20646;-84
2023/03/02 10:34:47;;;;;;;39.40;18.27;;;3.20;99.90;;;;;;5033731;28;20232;-82
2023/03/02 10:37:23;;;;;;;38.17;16.77;;;3.20;99.90;;;;;;5033929;28;20234;-82
2023/03/02 10:39:50;;;;;;;40.13;17.50;;;3.20;99.90;;;;;;5034091;28;20183;-82
2023/03/02 10:42:33;;;;;;;38.90;15.97;;;3.20;99.90;;;;;;5015769;28;20629;-83
2023/03/02 10:45:27;;;;;;;37.00;18.93;;;3.20;99.90;;;;;;5033688;28;20164;-82
2023/03/02 10:48:06;;;;;;;48.93;20.20;;;3.20;99.90;;;;;;5015844;28;20659;-83
2023/03/02 10:50:32;;;;;;;34.63;17.47;;;3.10;99.90;;;;;;5033283;28;20229;-83
2023/03/02 10:52:58;;;;;;;36.23;16.07;;;3.10;99.90;;;;;;5033572;28;20176;-83
2023/03/02 10:55:25;;;;;;;50.43;17.87;;;3.20;99.90;;;;;;5033112;28;20212;-83
2023/03/02 10:58:24;;;;;;;40.20;15.73;;;3.10;99.90;;;;;;5033486;28;20207;-83
2023/03/02 11:01:01;;;;;;;42.87;17.13;;;3.10;99.90;;;;;;5033106;28;20228;-83
2023/03/02 11:03:27;;;;;;;35.17;16.23;;;3.20;99.90;;;;;;5033298;28;20190;-83
2023/03/02 11:05:54;;;;;;;44.30;20.83;;;3.20;99.90;;;;;;4999271;28;20180;-83
2023/03/02 11:08:21;;;;;;;47.23;18.63;;;4.90;99.90;;;;;;5014871;28;20529;-84
2023/03/02 11:11:02;;;;;;;49.70;20.70;;;3.30;99.90;;;;;;5033123;28;20171;-83
2023/03/02 11:13:32;;;;;;;39.47;16.33;;;3.40;99.90;;;;;;5015507;28;20292;-83
2023/03/02 11:16:03;;;;;;;32.57;16.70;;;3.40;99.90;;;;;;5015272;28;20181;-83
2023/03/02 11:18:38;;;;;;;42.97;18.77;;;3.40;99.90;;;;;;5032777;28;20215;-83
2023/03/02 11:21:08;;;;;;;56.93;22.80;;;3.50;99.90;;;;;;5015036;28;20734;-83
2023/03/02 11:23:37;;;;;;;38.07;16.10;;;3.30;99.90;;;;;;5015596;28;20182;-83
2023/03/02 11:26:38;;;;;;;38.47;16.43;;;3.40;99.90;;;;;;5015631;28;20314;-82
2023/03/02 11:29:13;;;;;;;28.90;15.03;;;3.40;99.90;;;;;;5029523;28;20187;-82
2023/03/02 11:32:04;;;;;;;35.40;15.83;;;3.40;99.90;;;;;;5033661;28;20176;-83
2023/03/02 11:34:39;;;;;;;34.67;12.93;;;3.40;99.90;;;;;;5033111;28;20196;-83
2023/03/02 11:37:24;;;;;;;41.67;15.00;;;3.50;99.90;;;;;;5033462;28;20176;-83
2023/03/02 11:39:59;;;;;;;43.10;17.40;;;3.50;99.90;;;;;;5033449;28;20172;-82
2023/03/02 11:42:38;;;;;;;44.43;19.80;;;3.50;99.90;;;;;;5015657;28;20180;-83
2023/03/02 11:45:13;;;;;;;43.87;16.57;;;3.50;99.90;;;;;;5015806;28;20172;-82
2023/03/02 11:47:51;;;;;;;47.13;16.40;;;3.50;99.90;;;;;;5015395;28;20283;-82
2023/03/02 11:50:18;;;;;;;47.90;16.83;;;3.50;99.90;;;;;;5015483;28;20226;-83
2023/03/02 11:52:48;;;;;;;40.73;15.33;;;3.50;99.90;;;;;;5033095;28;20299;-82
2023/03/02 11:55:23;;;;;;;22.80;13.20;;;3.40;99.90;;;;;;5032761;28;20652;-83
2023/03/02 11:57:58;;;;;;;37.73;17.07;;;3.40;99.90;;;;;;5033230;28;20176;-83
2023/03/02 12:00:37;;;;;;;38.00;15.00;;;3.40;99.90;;;;;;5032990;28;20167;-83
2023/03/02 12:03:17;;;;;;;40.83;16.80;;;3.30;99.90;;;;;;5015153;28;20219;-82
2023/03/02 12:06:00;;;;;;;33.93;14.13;;;3.30;99.90;;;;;;5014905;28;20184;-83
2023/03/02 12:08:41;;;;;;;43.00;13.83;;;3.40;99.90;;;;;;5032359;28;20172;-82
2023/03/02 12:11:17;;;;;;;45.83;17.03;;;3.40;99.90;;;;;;5015027;28;20183;-81
2023/03/02 12:13:56;;;;;;;49.40;18.77;;;3.30;99.90;;;;;;5015239;28;20253;-82
2023/03/02 12:16:32;;;;;;;50.47;17.00;;;3.30;99.90;;;;;;5014978;28;20265;-82
2023/03/02 12:18:58;;;;;;;31.33;15.23;;;3.30;99.90;;;;;;5015610;28;20187;-83
2023/03/02 12:21:24;;;;;;;37.17;15.53;;;3.30;99.90;;;;;;5014750;28;20176;-83
2023/03/02 12:23:50;;;;;;;39.13;15.70;;;3.30;99.90;;;;;;5032729;28;20263;-84
2023/03/02 12:26:19;;;;;;;52.23;19.30;;;3.40;99.90;;;;;;5018469;28;20671;-82
2023/03/02 12:29:00;;;;;;;48.87;20.07;;;3.40;99.90;;;;;;5018844;28;20187;-83
2023/03/02 12:31:37;;;;;;;53.37;18.53;;;3.20;99.90;;;;;;5032833;28;20180;-82
2023/03/02 12:34:20;;;;;;;48.27;15.50;;;3.00;99.90;;;;;;5015139;28;20674;-82
2023/03/02 12:36:46;;;;;;;37.97;14.93;;;3.10;99.90;;;;;;5032625;28;21054;-82
2023/03/02 12:39:39;;;;;;;67.83;23.80;;;3.10;99.90;;;;;;5015078;28;20230;-82
2023/03/02 12:42:34;;;;;;;57.07;18.87;;;3.00;99.90;;;;;;5033058;28;20160;-81
2023/03/02 12:45:22;;;;;;;34.17;15.00;;;2.90;99.90;;;;;;5032275;28;20264;-84